Time;durP1;ratioP1;P1;durP2;ratioP2;P2;SDS_P1;SDS_P2;PMS_P1;PMS_P2;Temp;Humidity;BMP_temperature;BMP_pressure;BME280_temperature;BME280_humidity;BME280_pressure;Samples;Min_cycle;Max_cycle;Signal;HPM_P1;HPM_P2
2022/04/21 00:01:36;;;;;;;3.93;3.10;;;;;;;8.50;66.15;99708.09;5075634;28;20238;-60
2022/04/21 00:04:02;;;;;;;6.60;3.23;;;;;;;8.46;66.66;99709.09;5076622;28;20172;-61
2022/04/21 00:06:28;;;;;;;7.07;3.50;;;;;;;8.46;66.23;99701.41;5071592;28;20179;-65
2022/04/21 00:08:54;;;;;;;4.97;3.20;;;;;;;8.56;66.28;99698.31;5071501;28;20171;-60
2022/04/21 00:11:19;;;;;;;5.43;3.40;;;;;;;8.58;66.23;99698.22;5072863;28;20323;-60
2022/04/21 00:13:44;;;;;;;3.30;3.00;;;;;;;8.56;66.14;99694.94;5092744;28;20285;-61
2022/04/21 00:16:09;;;;;;;5.23;3.43;;;;;;;8.43;66.45;99699.84;5093317;28;20244;-60
2022/04/21 00:18:35;;;;;;;3.83;3.43;;;;;;;8.44;66.94;99700.69;5092910;28;20570;-60
2022/04/21 00:21:01;;;;;;;5.27;4.00;;;;;;;8.38;66.73;99701.81;5090123;28;20230;-60
2022/04/21 00:23:27;;;;;;;3.60;3.30;;;;;;;8.39;67.01;99703.47;5091945;28;20175;-59
2022/04/21 00:25:58;;;;;;;4.00;3.60;;;;;;;8.42;67.11;99702.50;5093147;28;20190;-59
2022/04/21 00:28:24;;;;;;;3.80;3.43;;;;;;;8.26;67.32;99697.31;5090823;28;20234;-60
2022/04/21 00:30:49;;;;;;;4.53;4.13;;;;;;;8.22;67.92;99696.66;5088276;28;20229;-60
2022/04/21 00:33:15;;;;;;;5.13;3.33;;;;;;;8.10;68.75;99689.59;5078951;28;20560;-60
2022/04/21 00:35:41;;;;;;;3.80;3.43;;;;;;;8.13;68.45;99682.56;5053122;28;20284;-59
2022/04/21 00:38:06;;;;;;;5.03;3.40;;;;;;;8.10;68.78;99685.31;5053062;28;20635;-60
2022/04/21 00:40:32;;;;;;;3.23;3.00;;;;;;;8.13;68.66;99677.44;5045590;28;20238;-60
2022/04/21 00:42:59;;;;;;;3.80;3.47;;;;;;;8.15;68.68;99679.94;5063985;28;20183;-60
2022/04/21 00:45:25;;;;;;;4.80;3.67;;;;;;;8.10;68.89;99679.34;5051092;28;20198;-61
2022/04/21 00:47:52;;;;;;;5.37;3.47;;;;;;;8.06;69.17;99678.66;5052293;28;20183;-60
2022/04/21 00:50:36;;;;;;;4.83;3.83;;;;;;;8.04;69.26;99678.75;5042488;28;20201;-61
2022/04/21 00:53:02;;;;;;;5.40;3.27;;;;;;;8.06;69.22;99676.94;5063478;28;20213;-60
2022/04/21 00:55:30;;;;;;;4.17;3.60;;;;;;;8.03;68.97;99679.66;5051122;28;20180;-60
2022/04/21 00:57:56;;;;;;;3.60;3.30;;;;;;;8.04;69.32;99681.31;5052916;28;20175;-61
2022/04/21 01:00:22;;;;;;;7.13;3.47;;;;;;;7.97;69.74;99679.97;5044195;28;20238;-62
2022/04/21 01:02:50;;;;;;;5.23;3.33;;;;;;;8.10;69.17;99676.78;5071216;28;20403;-60
2022/04/21 01:05:17;;;;;;;4.07;3.60;;;;;;;8.07;69.30;99677.75;5071095;28;20179;-60
2022/04/21 01:07:43;;;;;;;5.40;3.37;;;;;;;8.05;68.80;99672.72;5070883;28;20186;-60
2022/04/21 01:10:10;;;;;;;4.43;3.37;;;;;;;8.06;69.11;99673.53;5060975;28;20182;-60
2022/04/21 01:12:35;;;;;;;3.40;3.00;;;;;;;8.03;69.72;99673.72;5090802;28;20208;-61
2022/04/21 01:15:00;;;;;;;5.07;4.27;;;;;;;7.84;70.11;99668.66;5092171;28;20276;-60
2022/04/21 01:17:37;;;;;;;6.27;3.63;;;;;;;7.87;70.01;99665.97;5092523;28;20227;-60
2022/04/21 01:20:06;;;;;;;6.03;3.47;;;;;;;7.96;69.98;99669.81;5087829;28;20181;-60
2022/04/21 01:22:31;;;;;;;5.57;3.73;;;;;;;7.93;69.82;99668.22;5106998;28;20703;-60
2022/04/21 01:24:57;;;;;;;6.63;4.20;;;;;;;7.83;70.78;99665.28;5092067;28;20184;-60
2022/04/21 01:27:29;;;;;;;4.83;3.90;;;;;;;7.74;70.96;99664.03;5091973;28;20221;-60
2022/04/21 01:29:54;;;;;;;4.20;3.40;;;;;;;7.70;72.04;99657.41;5079308;28;20290;-60
2022/04/21 01:32:20;;;;;;;4.10;3.70;;;;;;;7.53;73.05;99665.91;5059616;28;20320;-61
2022/04/21 01:34:45;;;;;;;4.07;3.20;;;;;;;7.48;73.93;99673.00;5071884;28;20170;-59
2022/04/21 01:42:37;;;;;;;3.50;3.20;;;;;;;7.20;75.91;99655.56;5064717;28;20222;-59
2022/04/21 01:45:03;;;;;;;5.03;3.77;;;;;;;7.18;76.46;99658.22;5074843;28;20178;-60
2022/04/21 01:47:28;;;;;;;6.30;4.00;;;;;;;7.20;76.74;99656.38;5075903;28;20646;-59
2022/04/21 01:49:54;;;;;;;4.23;3.67;;;;;;;7.19;76.79;99661.59;5075310;28;20174;-60
2022/04/21 01:52:19;;;;;;;3.80;3.50;;;;;;;7.01;78.61;99656.44;5063912;28;20310;-61
2022/04/21 01:54:44;;;;;;;5.93;3.93;;;;;;;7.02;78.51;99655.53;5075807;28;20187;-60
2022/04/21 01:57:10;;;;;;;4.80;4.37;;;;;;;6.98;78.73;99648.09;5077770;28;20168;-61
2022/04/21 01:59:35;;;;;;;6.30;3.60;;;;;;;6.88;79.64;99650.25;5075287;28;20250;-61
2022/04/21 02:02:00;;;;;;;6.50;3.73;;;;;;;6.73;80.30;99655.16;5080746;28;20298;-61
2022/04/21 02:04:25;;;;;;;5.97;4.13;;;;;;;6.68;81.25;99654.53;5075719;28;20188;-61
2022/04/21 02:06:51;;;;;;;4.03;3.63;;;;;;;6.60;81.92;99644.66;5075252;28;20183;-60
2022/04/21 02:09:17;;;;;;;4.23;3.83;;;;;;;6.67;81.94;99649.50;5074936;28;20177;-60
2022/04/21 02:11:42;;;;;;;5.20;4.13;;;;;;;6.69;81.73;99650.28;5078222;28;20223;-60
2022/04/21 02:14:07;;;;;;;6.10;3.70;;;;;;;6.67;81.61;99644.38;5095607;28;20180;-60
2022/04/21 02:16:32;;;;;;;5.53;3.50;;;;;;;6.53;83.39;99645.03;5095365;28;20249;-60
2022/04/21 02:18:58;;;;;;;6.30;4.07;;;;;;;6.44;83.35;99639.41;5095046;28;20211;-60
2022/04/21 02:21:23;;;;;;;5.63;4.10;;;;;;;6.48;84.17;99636.75;5087066;28;20219;-60
2022/04/21 02:23:48;;;;;;;6.20;3.33;;;;;;;6.42;84.90;99636.09;5100562;28;20180;-60
2022/04/21 02:26:13;;;;;;;4.43;4.03;;;;;;;6.51;84.20;99639.97;5095886;28;20210;-60
2022/04/21 02:28:39;;;;;;;4.60;4.20;;;;;;;6.38;84.38;99629.47;5068777;28;20224;-60
2022/04/21 02:31:04;;;;;;;4.73;3.80;;;;;;;6.32;85.11;99628.94;5057512;28;20554;-60
2022/04/21 02:33:31;;;;;;;4.33;3.93;;;;;;;6.31;85.17;99630.63;5062335;28;20259;-61
2022/04/21 02:35:57;;;;;;;6.27;3.80;;;;;;;6.36;85.20;99633.81;5053670;28;20165;-61
2022/04/21 02:38:22;;;;;;;6.37;3.70;;;;;;;6.36;85.15;99626.16;5054717;28;20643;-61
2022/04/21 02:40:47;;;;;;;3.93;3.53;;;;;;;6.32;84.98;99621.25;5049730;28;20626;-60
2022/04/21 02:43:13;;;;;;;6.07;3.67;;;;;;;6.34;84.95;99615.19;5064563;28;20264;-60
2022/04/21 02:45:39;;;;;;;4.60;3.80;;;;;;;6.35;85.06;99628.78;5054922;28;20621;-61
2022/04/21 02:48:04;;;;;;;4.33;3.93;;;;;;;6.26;85.20;99624.91;5054698;28;20177;-60
2022/04/21 02:50:30;;;;;;;5.33;3.97;;;;;;;6.22;85.82;99621.66;5046478;28;20310;-62
2022/04/21 02:52:57;;;;;;;4.50;4.10;;;;;;;6.25;85.80;99618.97;5066270;28;20572;-60
2022/04/21 02:58:06;;;;;;;4.23;3.83;;;;;;;6.21;85.91;99620.00;5068995;28;20195;-60
2022/04/21 03:00:31;;;;;;;4.40;4.00;;;;;;;6.20;86.12;99613.25;5052571;28;20684;-61
2022/04/21 03:02:57;;;;;;;8.00;4.20;;;;;;;6.09;86.11;99623.09;5053225;28;20470;-60
2022/04/21 03:05:22;;;;;;;4.83;4.43;;;;;;;6.04;86.44;99617.34;5054367;28;20173;-60
2022/04/21 03:07:47;;;;;;;4.37;3.97;;;;;;;6.04;86.50;99617.34;5054627;28;20269;-60
2022/04/21 03:10:14;;;;;;;5.17;3.97;;;;;;;5.98;86.41;99615.88;5046911;28;20686;-60
2022/04/21 03:12:39;;;;;;;6.73;4.70;;;;;;;5.92;86.74;99614.41;5093201;28;20196;-59
2022/04/21 03:15:05;;;;;;;5.93;4.10;;;;;;;5.79;87.44;99614.13;5084535;28;20180;-61
2022/04/21 03:17:30;;;;;;;4.97;4.30;;;;;;;5.81;87.69;99609.75;5093091;28;20282;-60
2022/04/21 03:19:56;;;;;;;6.00;4.70;;;;;;;5.77;87.20;99612.53;5093828;28;20213;-60
2022/04/21 03:25:07;;;;;;;6.90;4.33;;;;;;;5.72;88.10;99624.63;5081995;28;20199;-61
2022/04/21 03:27:34;;;;;;;5.63;4.83;;;;;;;5.69;88.12;99614.56;5065350;28;20228;-61
2022/04/21 03:30:01;;;;;;;5.57;4.63;;;;;;;5.68;88.16;99613.75;5073552;28;20209;-60
2022/04/21 03:32:26;;;;;;;6.03;4.70;;;;;;;5.70;88.23;99611.13;5025194;28;20225;-61
2022/04/21 03:34:53;;;;;;;8.53;4.80;;;;;;;5.65;88.60;99614.69;5073670;28;20642;-61
2022/04/21 03:37:20;;;;;;;5.17;4.67;;;;;;;5.66;88.78;99607.88;5072645;28;20200;-61
2022/04/21 03:39:45;;;;;;;5.67;5.10;;;;;;;5.65;88.87;99616.41;5072112;28;20565;-59
2022/04/21 03:42:25;;;;;;;6.60;4.03;;;;;;;5.47;88.96;99612.88;5079056;28;20223;-60
2022/04/21 03:44:51;;;;;;;5.90;4.53;;;;;;;5.39;89.71;99618.31;5073491;28;20385;-61
2022/04/21 03:47:17;;;;;;;4.97;4.33;;;;;;;5.39;89.88;99617.50;5072261;28;20721;-59
2022/04/21 03:49:42;;;;;;;7.07;4.40;;;;;;;5.32;90.10;99615.19;5071895;28;20271;-59
2022/04/21 03:52:10;;;;;;;4.93;4.50;;;;;;;5.31;90.16;99622.91;5078330;28;20231;-59
2022/04/21 03:54:36;;;;;;;5.60;5.00;;;;;;;5.25;90.67;99618.06;5072066;28;20181;-60
2022/04/21 03:57:01;;;;;;;8.53;4.77;;;;;;;5.26;91.07;99627.34;5075345;28;20172;-59
2022/04/21 03:59:26;;;;;;;5.90;5.20;;;;;;;5.25;90.81;99623.16;5072887;28;20274;-59
2022/04/21 04:01:52;;;;;;;6.73;5.23;;;;;;;5.16;91.85;99616.72;5076521;28;20234;-59
2022/04/21 04:04:17;;;;;;;5.10;4.60;;;;;;;5.13;92.32;99619.38;5074541;28;20214;-60
2022/04/21 04:12:11;;;;;;;5.73;4.93;;;;;;;5.01;94.62;99623.22;5079520;28;20666;-60
2022/04/21 04:14:37;;;;;;;6.13;5.07;;;;;;;4.93;95.68;99623.53;5092036;28;20263;-61
2022/04/21 04:17:08;;;;;;;6.67;5.00;;;;;;;4.83;97.07;99615.41;5092115;28;20176;-60
2022/04/21 04:19:33;;;;;;;7.30;5.57;;;;;;;4.94;97.72;99617.53;5092881;28;20200;-59
2022/04/21 04:22:00;;;;;;;5.83;5.23;;;;;;;4.99;97.17;99620.72;5080495;28;20277;-59
2022/04/21 04:24:25;;;;;;;6.07;4.80;;;;;;;5.07;96.85;99614.50;5060595;28;20231;-59
2022/04/21 04:26:51;;;;;;;7.27;5.40;;;;;;;5.08;96.80;99617.00;5052341;28;20192;-61
2022/04/21 04:29:22;;;;;;;6.70;5.77;;;;;;;5.16;96.44;99616.72;5051275;28;20170;-60
2022/04/21 04:31:54;;;;;;;7.80;5.33;;;;;;;5.21;96.40;99612.25;5061301;28;20236;-60
2022/04/21 04:34:21;;;;;;;7.27;5.80;;;;;;;5.22;96.10;99616.47;5053844;28;20267;-61
2022/04/21 04:36:46;;;;;;;6.20;5.53;;;;;;;5.24;95.79;99616.41;5051198;28;20181;-60
2022/04/21 04:39:13;;;;;;;10.47;6.43;;;;;;;5.24;95.62;99616.41;5052026;28;20629;-59
2022/04/21 04:44:22;;;;;;;9.03;5.20;;;;;;;5.21;94.85;99614.81;5053563;28;20195;-59
2022/04/21 04:46:48;;;;;;;8.67;5.70;;;;;;;5.31;95.36;99603.31;5052636;28;20176;-59
2022/04/21 04:49:13;;;;;;;7.37;5.77;;;;;;;5.43;94.72;99611.38;5052322;28;20177;-60
2022/04/21 04:51:41;;;;;;;7.17;5.43;;;;;;;5.53;93.36;99602.44;5054773;28;20330;-61
2022/04/21 04:54:08;;;;;;;9.83;5.23;;;;;;;5.54;93.10;99604.09;5055167;28;20220;-60
2022/04/21 04:56:34;;;;;;;9.33;5.13;;;;;;;5.69;92.68;99604.34;5051015;28;20515;-59
2022/04/21 04:58:59;;;;;;;7.37;5.60;;;;;;;5.62;92.19;99598.69;5052517;28;20193;-60
2022/04/21 05:01:29;;;;;;;7.27;5.27;;;;;;;5.65;91.43;99617.22;5052914;28;20232;-61
2022/04/21 05:04:05;;;;;;;7.03;5.07;;;;;;;5.65;90.76;99609.56;5066455;28;20184;-62
2022/04/21 05:06:44;;;;;;;8.37;4.90;;;;;;;5.78;90.48;99612.44;5071925;28;20530;-64
2022/04/21 05:09:13;;;;;;;6.40;5.57;;;;;;;5.91;89.98;99607.63;5066625;28;20217;-62
2022/04/21 05:11:39;;;;;;;7.37;4.80;;;;;;;5.97;89.78;99607.38;5042290;28;20233;-62
2022/04/21 05:14:07;;;;;;;6.20;5.00;;;;;;;6.06;89.74;99602.81;5091708;28;20257;-60
2022/04/21 05:16:33;;;;;;;7.10;5.00;;;;;;;6.17;89.42;99610.81;5091816;28;20184;-60
2022/04/21 05:18:58;;;;;;;10.03;5.60;;;;;;;6.16;88.71;99608.34;5091572;28;20176;-60
2022/04/21 05:21:25;;;;;;;12.57;5.40;;;;;;;6.16;88.69;99608.34;5062902;28;20228;-61
2022/04/21 05:23:57;;;;;;;7.07;4.67;;;;;;;6.27;87.89;99603.59;5050560;28;20177;-59
2022/04/21 05:26:24;;;;;;;7.50;5.77;;;;;;;6.36;87.89;99602.34;5052106;28;20187;-60
2022/04/21 05:28:51;;;;;;;8.60;5.57;;;;;;;6.51;87.53;99603.38;5051290;28;20271;-61
2022/04/21 05:31:17;;;;;;;6.30;5.23;;;;;;;6.58;87.04;99607.31;5043493;28;20279;-60
2022/04/21 05:33:43;;;;;;;5.40;4.83;;;;;;;6.70;86.04;99608.44;5057899;28;20205;-61
2022/04/21 05:36:09;;;;;;;7.50;5.17;;;;;;;6.78;85.86;99607.22;5051434;28;20235;-60
2022/04/21 05:38:35;;;;;;;10.13;5.10;;;;;;;6.70;86.05;99609.28;5051631;28;20178;-61
2022/04/21 05:41:01;;;;;;;5.47;4.83;;;;;;;6.91;85.67;99611.75;5050897;28;20740;-60
2022/04/21 05:43:40;;;;;;;9.50;5.20;;;;;;;6.97;84.89;99614.03;5070521;28;20581;-61
2022/04/21 05:46:10;;;;;;;8.77;4.93;;;;;;;7.11;83.30;99615.91;5070001;28;20199;-61
2022/04/21 05:48:37;;;;;;;10.00;6.23;;;;;;;7.28;82.53;99609.97;5071119;28;20168;-61
2022/04/21 05:51:06;;;;;;;10.93;5.47;;;;;;;7.34;82.24;99611.41;5062646;28;20302;-60
2022/04/21 05:53:36;;;;;;;11.10;4.87;;;;;;;7.54;81.50;99615.53;5070113;28;20562;-60
2022/04/21 05:56:04;;;;;;;6.67;4.87;;;;;;;7.72;80.24;99614.63;5070196;28;20188;-60
2022/04/21 05:58:30;;;;;;;8.37;4.93;;;;;;;7.99;79.10;99608.16;5071639;28;20200;-60
2022/04/21 06:00:56;;;;;;;5.40;4.50;;;;;;;8.08;77.64;99612.81;5078967;28;20225;-59
2022/04/21 06:03:22;;;;;;;5.40;4.90;;;;;;;8.19;76.59;99613.09;5071601;28;20644;-60
2022/04/21 06:05:47;;;;;;;4.80;4.40;;;;;;;8.25;75.00;99619.63;5062426;28;20187;-60
2022/04/21 06:08:12;;;;;;;6.53;5.00;;;;;;;8.50;74.33;99610.69;5071207;28;20630;-60
2022/04/21 06:10:38;;;;;;;8.80;4.53;;;;;;;8.69;73.82;99619.00;5064917;28;20227;-60
2022/04/21 06:13:03;;;;;;;6.43;4.57;;;;;;;8.94;72.33;99612.53;5090261;28;20205;-60
2022/04/21 06:15:30;;;;;;;8.20;4.60;;;;;;;9.14;70.38;99615.72;5091758;28;20183;-59
2022/04/21 06:17:56;;;;;;;5.27;4.43;;;;;;;9.35;68.59;99618.81;5075094;28;20595;-60
2022/04/21 06:20:22;;;;;;;6.43;4.50;;;;;;;9.51;68.12;99614.47;5041849;28;22011;-60
2022/04/21 06:22:47;;;;;;;10.40;4.30;;;;;;;9.57;66.64;99603.00;5063968;28;20560;-60
2022/04/21 06:25:12;;;;;;;5.70;3.63;;;;;;;9.74;65.55;99606.34;5051339;28;20275;-60
2022/04/21 06:27:37;;;;;;;6.33;3.80;;;;;;;9.66;64.08;99604.19;5054416;28;20229;-59
2022/04/21 06:30:03;;;;;;;9.87;4.57;;;;;;;9.93;63.74;99593.22;5045782;28;20177;-61
2022/04/21 06:32:29;;;;;;;6.07;3.57;;;;;;;10.42;61.97;99595.41;5053022;28;20213;-60
2022/04/21 06:34:56;;;;;;;11.27;3.63;;;;;;;10.38;60.71;99582.81;5054797;28;20184;-59
2022/04/21 06:37:21;;;;;;;3.77;3.20;;;;;;;10.69;59.35;99588.59;5053405;28;20177;-60
2022/04/21 06:39:47;;;;;;;6.73;3.93;;;;;;;11.22;56.67;99580.94;5053667;28;20697;-60
2022/04/21 06:42:12;;;;;;;6.77;3.90;;;;;;;11.62;54.52;99579.13;5060028;28;20231;-59
2022/04/21 06:50:05;;;;;;;5.40;3.43;;;;;;;13.60;47.10;99572.06;5062417;28;20196;-62
2022/04/21 06:52:31;;;;;;;4.07;2.83;;;;;;;14.15;45.84;99579.94;5088185;28;20196;-60
2022/04/21 06:54:57;;;;;;;5.63;2.80;;;;;;;14.81;43.36;99579.09;5073171;28;20636;-61
2022/04/21 06:57:23;;;;;;;6.70;3.60;;;;;;;14.93;43.80;99582.44;5076239;28;20183;-71
2022/04/21 06:59:48;;;;;;;4.13;3.17;;;;;;;14.81;44.03;99583.44;5070444;28;20589;-61
2022/04/21 07:02:14;;;;;;;4.47;3.20;;;;;;;14.94;43.56;99589.28;5051959;28;20369;-61
2022/04/21 07:04:39;;;;;;;6.43;3.27;;;;;;;14.71;43.54;99593.72;5070803;28;20165;-60
2022/04/21 07:07:04;;;;;;;7.77;3.73;;;;;;;15.15;42.86;99594.47;5070990;28;20173;-61
2022/04/21 07:09:30;;;;;;;3.90;3.33;;;;;;;14.76;43.21;99589.00;5059998;28;20632;-60
2022/04/21 07:11:55;;;;;;;5.03;3.00;;;;;;;15.00;42.77;99591.38;5069498;28;20235;-63
2022/04/21 07:14:20;;;;;;;5.83;3.33;;;;;;;15.36;41.50;99585.88;5095251;28;20172;-62
2022/04/21 07:16:45;;;;;;;3.83;3.53;;;;;;;15.67;40.67;99583.31;5064372;28;20238;-59
2022/04/21 07:19:11;;;;;;;4.67;3.47;;;;;;;14.85;42.62;99590.84;5076223;28;20229;-60
2022/04/21 07:21:36;;;;;;;7.00;3.60;;;;;;;15.21;42.29;99595.75;5076057;28;20235;-60
2022/04/21 07:24:01;;;;;;;7.40;3.70;;;;;;;15.51;40.91;99588.97;5077386;28;20645;-60
2022/04/21 07:26:28;;;;;;;5.43;3.23;;;;;;;16.01;40.30;99593.44;5074037;28;20181;-58
2022/04/21 07:28:53;;;;;;;5.00;3.07;;;;;;;15.47;40.67;99579.81;5073489;28;20697;-60
2022/04/21 07:31:19;;;;;;;3.60;3.30;;;;;;;16.19;39.51;99582.47;5041235;28;20438;-60
2022/04/21 07:33:44;;;;;;;3.20;2.90;;;;;;;16.36;38.57;99584.41;5072849;28;20224;-60
2022/04/21 07:36:09;;;;;;;3.77;3.17;;;;;;;15.65;39.78;99588.66;5073206;28;20177;-60
2022/04/21 07:38:35;;;;;;;4.33;3.60;;;;;;;16.11;39.27;99585.69;5072900;28;20494;-59
2022/04/21 07:41:01;;;;;;;8.00;3.40;;;;;;;16.00;39.49;99586.63;5066542;28;20217;-60
2022/04/21 07:43:26;;;;;;;7.17;3.37;;;;;;;16.58;38.70;99579.91;5052428;28;20178;-60
2022/04/21 07:45:51;;;;;;;4.00;3.23;;;;;;;17.09;37.36;99578.88;5061016;28;20305;-60
2022/04/21 07:48:17;;;;;;;4.93;3.50;;;;;;;18.34;35.10;99573.50;5073197;28;20521;-59
2022/04/21 07:50:42;;;;;;;4.97;3.03;;;;;;;18.44;34.65;99578.63;5067370;28;20311;-60
2022/04/21 07:53:13;;;;;;;9.00;3.80;;;;;;;17.80;35.84;99578.53;5083252;28;20729;-59
2022/04/21 07:55:40;;;;;;;4.37;3.43;;;;;;;17.65;35.60;99581.63;5073421;28;20169;-60
2022/04/21 07:58:06;;;;;;;4.23;3.07;;;;;;;18.12;35.07;99577.31;5065171;28;20597;-61
2022/04/21 08:00:32;;;;;;;5.13;3.30;;;;;;;17.84;36.08;99579.91;5043701;28;20251;-60
2022/04/21 08:02:58;;;;;;;3.20;2.80;;;;;;;19.29;33.22;99579.03;5082693;28;20176;-61
2022/04/21 08:05:23;;;;;;;5.03;3.10;;;;;;;20.09;32.00;99577.97;5072194;28;20235;-61
2022/04/21 08:07:49;;;;;;;5.17;2.97;;;;;;;20.42;31.35;99583.31;5072297;28;20176;-59
2022/04/21 08:10:15;;;;;;;4.23;3.53;;;;;;;16.67;37.83;99573.94;5062925;28;20173;-60
2022/04/21 08:12:46;;;;;;;5.60;3.47;;;;;;;16.43;38.86;99582.09;5070104;28;20674;-60
2022/04/21 08:15:14;;;;;;;5.37;3.63;;;;;;;15.41;40.50;99588.09;5068263;28;20208;-61
2022/04/21 08:17:40;;;;;;;5.20;3.80;;;;;;;14.68;42.39;99583.63;5071687;28;20172;-60
2022/04/21 08:20:10;;;;;;;6.03;3.30;;;;;;;14.57;43.69;99589.59;5046650;28;20207;-62
2022/04/21 08:22:36;;;;;;;6.60;3.83;;;;;;;14.11;45.02;99582.88;5066358;28;20189;-60
2022/04/21 08:33:16;;;;;;;4.47;4.03;;;;;;;13.93;45.25;99587.69;5071839;28;20598;-60
2022/04/21 08:35:44;;;;;;;7.23;3.93;;;;;;;13.26;47.13;99596.97;5054579;28;20647;-59
2022/04/21 08:38:09;;;;;;;5.33;4.00;;;;;;;13.15;46.75;99595.22;5070915;28;20181;-59
2022/04/21 08:40:37;;;;;;;6.77;4.03;;;;;;;13.24;47.04;99597.91;5065540;28;20329;-60
2022/04/21 08:43:12;;;;;;;6.07;4.03;;;;;;;12.66;48.31;99595.22;5070784;28;20186;-60
2022/04/21 08:45:38;;;;;;;5.20;3.10;;;;;;;12.89;48.09;99592.75;5071107;28;20233;-59
2022/04/21 08:48:05;;;;;;;5.83;3.83;;;;;;;12.86;48.26;99587.81;5071611;28;20169;-59
2022/04/21 08:50:31;;;;;;;6.43;3.83;;;;;;;12.89;47.73;99583.25;5063016;28;20227;-58
2022/04/21 08:52:56;;;;;;;4.60;3.33;;;;;;;13.01;48.18;99584.13;5053657;28;20677;-59
2022/04/21 08:55:22;;;;;;;7.43;4.00;;;;;;;13.35;46.73;99583.41;5072028;28;20198;-60
2022/04/21 08:57:49;;;;;;;10.23;4.17;;;;;;;13.15;47.54;99580.53;5079868;28;20175;-60
2022/04/21 09:00:15;;;;;;;5.77;3.90;;;;;;;13.22;47.35;99573.13;5081534;28;20286;-59
2022/04/21 09:02:44;;;;;;;7.67;3.53;;;;;;;13.40;46.88;99582.13;5075962;28;20284;-61
2022/04/21 09:05:10;;;;;;;6.17;3.60;;;;;;;13.17;46.95;99575.25;5050547;28;20173;-59
2022/04/21 09:07:52;;;;;;;3.97;3.57;;;;;;;12.49;49.05;99574.97;5057833;28;20180;-60
2022/04/21 09:10:19;;;;;;;5.40;3.77;;;;;;;12.54;49.20;99576.28;5058486;28;20196;-59
2022/04/21 09:12:55;;;;;;;4.53;3.83;;;;;;;12.60;49.39;99577.59;5071193;28;20196;-59
2022/04/21 09:15:21;;;;;;;4.33;3.80;;;;;;;12.78;49.04;99572.06;5070690;28;20199;-61
2022/04/21 09:17:48;;;;;;;4.70;3.73;;;;;;;12.40;50.17;99571.28;5070442;28;20177;-60
2022/04/21 09:20:18;;;;;;;5.23;4.07;;;;;;;12.55;50.13;99574.53;5062465;28;20173;-59
2022/04/21 09:22:58;;;;;;;3.53;3.23;;;;;;;12.63;49.38;99571.38;5084873;28;20173;-60
2022/04/21 09:25:26;;;;;;;5.07;3.70;;;;;;;12.94;49.42;99577.75;5070271;28;20181;-59
2022/04/21 09:27:52;;;;;;;4.33;3.80;;;;;;;13.50;47.86;99571.94;5051777;28;20225;-61
2022/04/21 09:30:19;;;;;;;4.23;3.63;;;;;;;13.35;46.96;99562.72;5061558;28;20703;-60
2022/04/21 09:33:10;;;;;;;4.03;3.50;;;;;;;13.44;47.30;99567.22;5084827;28;20201;-60
2022/04/21 09:35:37;;;;;;;4.67;3.87;;;;;;;13.60;46.62;99564.31;5068712;28;20180;-60
2022/04/21 09:38:05;;;;;;;4.70;3.60;;;;;;;14.78;45.06;99566.38;5070395;28;20181;-60
2022/04/21 09:40:32;;;;;;;5.93;3.63;;;;;;;14.99;43.08;99568.19;5061917;28;20296;-62
2022/04/21 09:43:02;;;;;;;5.17;3.13;;;;;;;15.49;41.33;99562.34;5083324;28;20176;-59
2022/04/21 09:48:18;;;;;;;5.23;3.00;;;;;;;14.90;42.64;99569.75;5071714;28;20180;-60
2022/04/21 09:50:49;;;;;;;6.57;3.47;;;;;;;14.93;41.57;99566.91;5062479;28;20220;-60
2022/04/21 09:53:19;;;;;;;4.63;3.40;;;;;;;15.74;41.22;99547.31;5068803;28;20652;-60
2022/04/21 09:55:45;;;;;;;5.47;3.40;;;;;;;16.22;39.36;99551.03;5061384;28;20190;-60
2022/04/21 09:58:12;;;;;;;3.90;3.23;;;;;;;16.17;39.26;99545.44;5066118;28;20230;-60
2022/04/21 10:00:39;;;;;;;5.35;3.63;;;;;;;17.23;37.16;99540.41;5062794;28;20512;-60
2022/04/21 10:03:06;;;;;;;4.57;3.20;;;;;;;18.23;35.41;99540.66;5074138;28;20196;-60
2022/04/21 10:05:34;;;;;;;5.53;3.20;;;;;;;18.41;35.83;99538.09;5074029;28;20277;-60
2022/04/21 10:08:00;;;;;;;4.70;2.80;;;;;;;19.43;33.85;99524.69;5071440;28;20184;-61
2022/04/21 10:10:28;;;;;;;5.77;3.60;;;;;;;19.84;32.27;99525.69;5064242;28;20705;-60
2022/04/21 10:12:55;;;;;;;6.03;3.10;;;;;;;20.04;32.76;99516.78;5081034;28;20238;-60
2022/04/21 10:15:20;;;;;;;4.83;2.90;;;;;;;19.83;33.58;99531.91;5077909;28;20177;-60
2022/04/21 10:17:46;;;;;;;4.93;2.93;;;;;;;20.21;31.12;99522.88;5075214;28;20188;-60
2022/04/21 10:20:11;;;;;;;3.97;3.27;;;;;;;19.48;31.65;99522.44;5065343;28;20208;-60
2022/04/21 10:22:37;;;;;;;4.07;3.33;;;;;;;20.06;31.28;99515.66;5073479;28;20180;-61
2022/04/21 10:25:05;;;;;;;3.50;3.20;;;;;;;18.60;33.44;99510.25;5073542;28;20175;-60
2022/04/21 10:27:47;;;;;;;7.20;3.40;;;;;;;16.44;37.22;99516.25;5059741;28;20232;-61
2022/04/21 10:30:21;;;;;;;4.38;3.50;;;;;;;17.24;36.55;99503.03;5044583;28;20421;-61
2022/04/21 10:32:49;;;;;;;5.00;3.53;;;;;;;17.48;36.56;99504.34;5067351;28;20246;-60
2022/04/21 10:35:23;;;;;;;6.47;3.20;;;;;;;17.05;37.10;99498.72;5054641;28;20178;-61
2022/04/21 10:38:14;;;;;;;5.23;2.67;;;;;;;16.87;36.67;99493.38;5055028;28;20317;-60
2022/04/21 10:40:56;;;;;;;6.30;2.80;;;;;;;15.73;37.69;99496.44;5048090;28;20231;-61
2022/04/21 10:43:22;;;;;;;3.83;3.00;;;;;;;15.48;38.55;99485.56;5089768;28;20184;-62
2022/04/21 10:46:03;;;;;;;4.27;3.00;;;;;;;16.12;38.08;99496.53;5071595;28;20169;-62
2022/04/21 10:48:42;;;;;;;3.67;2.60;;;;;;;15.44;36.56;99481.56;5071669;28;20600;-62
2022/04/21 10:51:08;;;;;;;2.83;2.50;;;;;;;15.39;36.76;99484.53;5062299;28;20220;-61
2022/04/21 11:00:00;;;;;;;3.50;2.70;;;;;;;15.30;38.44;99472.38;5031933;28;20185;-60
2022/04/21 11:02:42;;;;;;;3.33;2.87;;;;;;;15.31;38.34;99471.44;4978777;28;20254;-63
2022/04/21 11:05:22;;;;;;;4.83;2.77;;;;;;;15.43;37.98;99464.38;5033552;28;20335;-61
2022/04/21 11:07:51;;;;;;;3.23;2.90;;;;;;;15.23;39.67;99466.91;5043017;28;20315;-61
2022/04/21 11:10:38;;;;;;;4.63;2.77;;;;;;;14.45;40.04;99469.78;5040665;28;20254;-61
2022/04/21 11:13:05;;;;;;;10.13;3.77;;;;;;;14.71;40.41;99466.88;5047076;28;20212;-60
2022/04/21 11:15:46;;;;;;;4.63;3.10;;;;;;;14.80;41.10;99454.94;5021633;28;20234;-60
2022/04/21 11:18:17;;;;;;;4.97;3.77;;;;;;;14.46;41.13;99455.09;5024492;28;20181;-60
2022/04/21 11:20:44;;;;;;;6.28;3.40;;;;;;;14.53;41.16;99456.22;5039681;28;20460;-60
2022/04/21 11:23:21;;;;;;;5.90;3.10;;;;;;;14.71;41.46;99453.94;5024540;28;20202;-61
2022/04/21 11:25:47;;;;;;;4.07;2.97;;;;;;;14.96;41.92;99446.72;5030971;28;20436;-63
2022/04/21 11:28:13;;;;;;;6.13;3.03;;;;;;;14.97;41.00;99446.59;5030968;28;20266;-58
2022/04/21 11:30:38;;;;;;;3.17;2.87;;;;;;;14.84;40.72;99446.78;5009858;28;20257;-59
2022/04/21 11:33:10;;;;;;;3.17;2.87;;;;;;;14.74;41.51;99432.97;5058018;28;20248;-60
2022/04/21 11:35:35;;;;;;;3.67;2.53;;;;;;;14.91;40.87;99433.31;5089209;28;20180;-64
2022/04/21 11:38:00;;;;;;;2.83;2.60;;;;;;;14.91;39.74;99441.94;5073328;28;20177;-60
2022/04/21 11:40:40;;;;;;;3.00;2.70;;;;;;;14.90;39.43;99431.72;5064819;28;20523;-62
2022/04/21 11:43:11;;;;;;;3.43;2.30;;;;;;;14.97;38.79;99427.63;5071679;28;20263;-59
2022/04/21 11:45:40;;;;;;;2.40;2.20;;;;;;;14.95;39.13;99425.19;5064018;28;20182;-60
2022/04/21 11:48:11;;;;;;;2.57;2.37;;;;;;;15.10;39.87;99425.66;5058887;28;20244;-60
2022/04/21 11:50:36;;;;;;;5.47;2.73;;;;;;;14.83;40.06;99426.19;5063906;28;20219;-61
2022/04/21 11:53:11;;;;;;;2.67;2.47;;;;;;;15.16;40.53;99414.78;5083568;28;20216;-60
2022/04/21 11:55:37;;;;;;;4.07;2.50;;;;;;;15.33;39.04;99408.16;5071564;28;20515;-59
2022/04/21 11:58:02;;;;;;;4.77;3.10;;;;;;;15.09;40.07;99421.44;5074823;28;20175;-58
2022/04/21 12:08:46;;;;;;;4.77;3.10;;;;;;;15.55;40.35;99414.09;5053228;28;20272;-59
2022/04/21 12:11:14;;;;;;;3.80;2.60;;;;;;;15.71;40.29;99410.19;5063881;28;20228;-59
2022/04/21 12:13:40;;;;;;;4.73;3.03;;;;;;;15.68;40.20;99402.66;5075538;28;20207;-59
2022/04/21 12:16:36;;;;;;;3.57;2.87;;;;;;;15.32;40.43;99405.72;5072662;28;20276;-59
2022/04/21 12:19:18;;;;;;;3.20;2.70;;;;;;;15.23;41.62;99396.13;5072327;28;20260;-58
2022/04/21 12:21:55;;;;;;;3.23;2.93;;;;;;;15.68;40.60;99400.06;5075806;27;20242;-59
2022/04/21 12:24:20;;;;;;;2.63;2.43;;;;;;;15.50;40.36;99403.31;5050397;28;20523;-58
2022/04/21 12:26:53;;;;;;;3.10;2.63;;;;;;;15.14;40.64;99405.50;5052383;28;20369;-58
2022/04/21 12:29:21;;;;;;;3.17;2.47;;;;;;;15.16;40.54;99395.84;5052057;28;20464;-59